createdAt,value
2023-03-03T00:00:46.745Z,34.42
2023-03-03T00:03:17.504Z,39.22
2023-03-03T00:05:43.994Z,35.03
2023-03-03T00:08:10.644Z,35.97
2023-03-03T00:10:38.238Z,38.80
2023-03-03T00:13:12.773Z,32.22
2023-03-03T00:15:39.307Z,34.10
2023-03-03T00:18:18.868Z,39.83
2023-03-03T00:20:52.246Z,38.50
2023-03-03T00:23:38.771Z,35.42
2023-03-03T00:26:21.337Z,32.88
2023-03-03T00:28:49.981Z,33.15
2023-03-03T00:31:25.622Z,37.58
2023-03-03T00:33:54.887Z,34.72
2023-03-03T00:36:28.722Z,36.08
2023-03-03T00:38:57.897Z,38.80
2023-03-03T00:41:27.455Z,37.38
2023-03-03T00:43:54.494Z,34.92
2023-03-03T00:46:23.467Z,35.28
2023-03-03T00:48:51.277Z,38.53
2023-03-03T00:51:30.395Z,35.35
2023-03-03T00:53:58.210Z,39.80
2023-03-03T00:56:24.995Z,35.88
2023-03-03T00:58:51.814Z,38.17
2023-03-03T01:01:20.847Z,38.63
2023-03-03T01:03:51.241Z,33.00
2023-03-03T01:06:17.783Z,39.67
2023-03-03T01:08:44.399Z,34.58
2023-03-03T01:11:17.449Z,38.13
2023-03-03T01:13:47.965Z,43.83
2023-03-03T01:16:14.536Z,40.38
2023-03-03T01:18:42.052Z,38.90
2023-03-03T01:21:09.360Z,38.00
2023-03-03T01:23:35.888Z,33.67
2023-03-03T01:26:02.632Z,39.78
2023-03-03T01:28:29.136Z,41.63
2023-03-03T01:31:00.650Z,36.95
2023-03-03T01:33:27.259Z,36.67
2023-03-03T01:35:54.425Z,35.25
2023-03-03T01:38:21.365Z,38.83
2023-03-03T01:40:59.264Z,40.92
2023-03-03T01:43:31.534Z,38.38
2023-03-03T01:45:57.929Z,37.88
2023-03-03T01:48:37.954Z,36.35
2023-03-03T01:51:18.248Z,37.65
2023-03-03T01:53:49.922Z,38.17
2023-03-03T01:58:46.733Z,36.97
2023-03-03T02:01:21.006Z,37.50
2023-03-03T02:03:48.400Z,40.20
2023-03-03T02:06:19.564Z,37.63
2023-03-03T02:08:59.824Z,41.88
2023-03-03T02:11:29.605Z,38.40
2023-03-03T02:13:56.097Z,40.13
2023-03-03T02:16:23.039Z,37.50
2023-03-03T02:18:49.855Z,37.97
2023-03-03T02:21:20.718Z,36.55
2023-03-03T02:23:58.493Z,37.42
2023-03-03T02:26:31.200Z,37.00
2023-03-03T02:29:03.128Z,38.22
2023-03-03T02:31:31.588Z,37.95
2023-03-03T02:33:59.185Z,38.90
2023-03-03T02:36:31.753Z,35.97
2023-03-03T02:39:07.161Z,37.85
2023-03-03T02:41:53.224Z,38.45
2023-03-03T02:44:23.072Z,34.15
2023-03-03T02:46:50.902Z,36.67
2023-03-03T02:49:20.845Z,37.78
2023-03-03T02:51:47.641Z,34.08
2023-03-03T02:54:15.734Z,37.67
2023-03-03T02:56:42.453Z,33.75
2023-03-03T02:59:09.287Z,37.97
2023-03-03T03:01:42.122Z,38.38
2023-03-03T03:04:24.542Z,38.42
2023-03-03T03:06:52.254Z,35.45
2023-03-03T03:09:21.179Z,33.10
2023-03-03T03:11:49.846Z,36.70
2023-03-03T03:14:20.156Z,39.22
2023-03-03T03:16:46.744Z,40.22
2023-03-03T03:19:13.293Z,37.75
2023-03-03T03:21:40.572Z,36.80
2023-03-03T03:24:08.246Z,42.05
2023-03-03T03:26:36.946Z,42.78
2023-03-03T03:29:03.608Z,36.72
2023-03-03T03:31:30.930Z,30.50
2023-03-03T03:33:57.401Z,39.13
2023-03-03T03:36:24.502Z,37.88
2023-03-03T03:38:52.384Z,40.75
2023-03-03T03:41:18.835Z,39.95
2023-03-03T03:43:45.717Z,46.40
2023-03-03T03:46:13.026Z,41.97
2023-03-03T03:48:39.559Z,43.70
2023-03-03T03:51:09.825Z,41.28
2023-03-03T03:53:36.337Z,40.75
2023-03-03T03:56:02.825Z,46.60
2023-03-03T03:58:30.452Z,43.03
2023-03-03T04:01:06.636Z,43.92
2023-03-03T04:03:36.105Z,48.33
2023-03-03T04:06:06.075Z,42.95
2023-03-03T04:08:33.953Z,43.55
2023-03-03T04:11:00.866Z,47.53
2023-03-03T04:13:28.885Z,44.75
2023-03-03T04:15:55.731Z,41.55
2023-03-03T04:18:22.396Z,38.70
2023-03-03T04:20:49.976Z,45.95
2023-03-03T04:23:16.584Z,49.33
2023-03-03T04:25:43.079Z,46.72
2023-03-03T04:28:15.446Z,42.83
2023-03-03T04:30:42.662Z,42.45
2023-03-03T04:33:09.650Z,41.70
2023-03-03T04:35:38.639Z,44.03
2023-03-03T04:38:05.704Z,44.05
2023-03-03T04:40:33.227Z,45.03
2023-03-03T04:43:01.201Z,45.47
2023-03-03T04:45:28.026Z,41.80
2023-03-03T04:47:54.637Z,38.42
2023-03-03T04:50:22.206Z,42.70
2023-03-03T04:52:48.675Z,40.05
2023-03-03T04:55:16.625Z,39.72
2023-03-03T04:57:45.348Z,42.78
2023-03-03T05:00:13.505Z,48.97
2023-03-03T05:02:41.285Z,44.83
2023-03-03T05:05:13.654Z,42.65
2023-03-03T05:07:40.746Z,40.65
2023-03-03T05:10:08.173Z,46.95
2023-03-03T05:12:34.596Z,46.53
2023-03-03T05:15:01.379Z,44.63
2023-03-03T05:17:27.813Z,42.60
2023-03-03T05:19:54.210Z,45.90
2023-03-03T05:22:20.663Z,36.58
2023-03-03T05:24:49.268Z,43.85
2023-03-03T05:27:16.420Z,44.78
2023-03-03T05:29:42.921Z,41.10
2023-03-03T05:32:09.402Z,41.00
2023-03-03T05:34:36.076Z,46.85
2023-03-03T05:37:03.711Z,46.92
2023-03-03T05:39:30.156Z,40.15
2023-03-03T05:41:56.855Z,43.13
2023-03-03T05:44:23.310Z,39.25
2023-03-03T05:46:49.824Z,41.33
2023-03-03T05:49:16.429Z,45.28
2023-03-03T05:51:42.999Z,43.92
2023-03-03T05:54:09.473Z,43.25
2023-03-03T05:56:35.987Z,39.72
2023-03-03T05:59:02.611Z,44.83
2023-03-03T06:01:29.329Z,46.60
2023-03-03T06:03:55.833Z,43.20
2023-03-03T06:06:22.320Z,44.10
2023-03-03T06:08:48.801Z,41.10
2023-03-03T06:11:16.666Z,42.25
2023-03-03T06:13:43.203Z,43.00
2023-03-03T06:16:10.005Z,41.78
2023-03-03T06:18:37.018Z,40.03
2023-03-03T06:21:03.577Z,43.28
2023-03-03T06:23:30.029Z,45.67
2023-03-03T06:25:56.640Z,40.95
2023-03-03T06:28:24.932Z,45.30
2023-03-03T06:30:55.759Z,40.72
2023-03-03T06:33:22.973Z,35.93
2023-03-03T06:35:51.616Z,45.25
2023-03-03T06:38:18.119Z,42.70
2023-03-03T06:40:45.357Z,50.92
2023-03-03T06:43:12.320Z,58.17
2023-03-03T06:45:38.934Z,50.20
2023-03-03T06:48:05.599Z,47.60
2023-03-03T06:50:32.130Z,43.42
2023-03-03T06:53:10.554Z,44.88
2023-03-03T06:55:37.340Z,41.50
2023-03-03T06:58:16.165Z,43.28
2023-03-03T07:00:45.109Z,53.17
2023-03-03T07:03:15.991Z,56.97
2023-03-03T07:05:43.402Z,51.30
2023-03-03T07:08:17.530Z,55.15
2023-03-03T07:10:44.896Z,48.17
2023-03-03T07:13:26.887Z,42.13
2023-03-03T07:15:54.848Z,43.83
2023-03-03T07:18:24.702Z,49.15
2023-03-03T07:20:51.390Z,45.55
2023-03-03T07:23:42.349Z,43.42
2023-03-03T07:26:12.593Z,46.72
2023-03-03T07:28:42.387Z,40.88
2023-03-03T07:31:39.231Z,49.08
2023-03-03T07:34:23.741Z,43.78
2023-03-03T07:36:53.785Z,41.20
2023-03-03T07:39:40.354Z,38.40
2023-03-03T07:42:27.711Z,48.33
2023-03-03T07:45:22.047Z,40.20
2023-03-03T07:47:48.492Z,34.45
2023-03-03T07:50:24.156Z,35.30
2023-03-03T07:53:01.014Z,35.20
2023-03-03T07:55:35.548Z,32.92
2023-03-03T07:58:10.920Z,30.55
2023-03-03T08:00:40.497Z,32.58
2023-03-03T08:03:17.828Z,33.33
2023-03-03T08:05:47.939Z,28.30
2023-03-03T08:08:42.519Z,27.05
2023-03-03T08:11:09.615Z,30.58
2023-03-03T08:13:38.678Z,31.08
2023-03-03T08:16:11.126Z,27.45
2023-03-03T08:18:42.461Z,32.10
2023-03-03T08:21:15.068Z,32.75
2023-03-03T08:23:41.599Z,37.00
2023-03-03T08:26:08.707Z,36.03
2023-03-03T08:28:35.341Z,25.85
2023-03-03T08:31:16.401Z,26.95
2023-03-03T08:33:45.483Z,26.13
2023-03-03T08:36:12.703Z,29.65
2023-03-03T08:38:39.727Z,25.40
2023-03-03T08:41:06.503Z,26.05
2023-03-03T08:43:33.074Z,28.45
2023-03-03T08:46:01.818Z,26.70
2023-03-03T08:48:29.488Z,27.88
2023-03-03T08:50:56.107Z,30.65
2023-03-03T08:53:23.650Z,30.13
2023-03-03T08:55:50.279Z,31.45
2023-03-03T08:58:18.280Z,35.42
2023-03-03T09:00:48.117Z,33.08
2023-03-03T09:03:15.738Z,37.92
2023-03-03T09:05:42.275Z,31.73
2023-03-03T09:08:10.643Z,30.33
2023-03-03T09:10:37.583Z,32.72
2023-03-03T09:13:13.757Z,31.20
2023-03-03T09:15:40.459Z,32.08
2023-03-03T09:18:20.335Z,32.30
2023-03-03T09:20:54.446Z,33.45
2023-03-03T09:23:23.907Z,38.13
2023-03-03T09:25:51.715Z,36.28
2023-03-03T09:28:32.733Z,28.42
2023-03-03T09:31:01.528Z,35.35
2023-03-03T09:33:40.365Z,26.55
2023-03-03T09:36:37.973Z,28.88
2023-03-03T09:39:25.768Z,29.55
2023-03-03T09:42:26.107Z,31.33
2023-03-03T09:45:20.354Z,33.15
2023-03-03T09:47:55.952Z,31.27
2023-03-03T09:50:46.789Z,29.77
2023-03-03T09:53:38.058Z,26.33
2023-03-03T09:56:30.123Z,28.88
2023-03-03T10:01:53.405Z,31.50
2023-03-03T10:04:34.954Z,28.27
2023-03-03T10:07:22.739Z,27.80
2023-03-03T10:09:58.380Z,27.05
2023-03-03T10:12:45.410Z,28.90
2023-03-03T10:15:26.559Z,30.05
2023-03-03T10:18:16.880Z,26.60
2023-03-03T10:20:52.400Z,29.30
2023-03-03T10:23:22.613Z,28.75
2023-03-03T10:26:08.447Z,30.42
2023-03-03T10:28:50.418Z,25.45
2023-03-03T10:31:42.598Z,29.73
2023-03-03T10:34:27.502Z,31.70
2023-03-03T10:36:56.576Z,29.15
2023-03-03T10:39:58.370Z,29.35
2023-03-03T10:42:36.598Z,29.13
2023-03-03T10:45:36.019Z,31.50
2023-03-03T10:48:24.022Z,31.58
2023-03-03T10:50:58.661Z,31.70
2023-03-03T10:53:46.006Z,30.27
2023-03-03T10:56:35.404Z,28.02
2023-03-03T10:59:31.305Z,30.02
2023-03-03T11:02:43.137Z,27.47
2023-03-03T11:05:18.315Z,23.73
2023-03-03T11:07:51.741Z,24.48
2023-03-03T11:10:37.495Z,24.92
2023-03-03T11:13:19.136Z,23.02
2023-03-03T11:16:10.030Z,32.03
2023-03-03T11:19:02.391Z,27.30
2023-03-03T11:21:47.301Z,23.08
2023-03-03T11:24:26.779Z,29.80
2023-03-03T11:26:53.149Z,25.73
2023-03-03T11:29:47.851Z,28.52
2023-03-03T11:32:24.065Z,27.75
2023-03-03T11:34:56.239Z,26.42
2023-03-03T11:37:39.632Z,26.25
2023-03-03T11:40:18.118Z,28.10
2023-03-03T11:43:18.593Z,30.38
2023-03-03T11:45:58.439Z,25.20
2023-03-03T11:48:33.703Z,29.73
2023-03-03T11:51:07.651Z,27.52
2023-03-03T11:53:43.132Z,51.15
2023-03-03T11:56:27.670Z,29.73
2023-03-03T11:58:58.172Z,26.40
2023-03-03T12:01:30.422Z,24.77
2023-03-03T12:04:06.347Z,28.85
2023-03-03T12:06:47.907Z,26.23
2023-03-03T12:09:32.005Z,27.08
2023-03-03T12:12:14.688Z,30.17
2023-03-03T12:15:10.556Z,29.02
2023-03-03T12:18:05.922Z,25.48
2023-03-03T12:20:59.966Z,28.40
2023-03-03T12:23:51.303Z,25.45
2023-03-03T12:26:27.089Z,27.42
2023-03-03T12:28:59.494Z,28.33
2023-03-03T12:31:44.384Z,29.40
2023-03-03T12:34:26.967Z,28.40
2023-03-03T12:37:05.151Z,29.52
2023-03-03T12:39:56.225Z,25.77
2023-03-03T12:42:41.706Z,25.08
2023-03-03T12:45:30.063Z,33.67
2023-03-03T12:48:05.463Z,28.80
2023-03-03T12:51:21.322Z,28.35
2023-03-03T12:54:13.608Z,25.27
2023-03-03T12:56:51.114Z,25.50
2023-03-03T12:59:29.541Z,27.75
2023-03-03T13:02:29.910Z,32.92
2023-03-03T13:05:27.297Z,26.20
2023-03-03T13:08:16.383Z,29.20
2023-03-03T13:10:50.363Z,28.42
2023-03-03T13:13:26.940Z,30.50
2023-03-03T13:16:17.119Z,31.05
2023-03-03T13:19:08.758Z,29.13
2023-03-03T13:21:41.992Z,27.35
2023-03-03T13:24:43.654Z,26.92
2023-03-03T13:27:16.892Z,27.50
2023-03-03T13:29:59.316Z,31.95
2023-03-03T13:32:40.395Z,28.13
2023-03-03T13:35:30.013Z,23.52
2023-03-03T13:37:58.120Z,27.55
2023-03-03T13:41:09.414Z,28.63
2023-03-03T13:43:47.432Z,23.17
2023-03-03T13:46:51.485Z,29.40
2023-03-03T13:49:20.836Z,28.40
2023-03-03T13:52:02.797Z,26.70
2023-03-03T13:54:53.098Z,27.95
2023-03-03T13:57:31.440Z,25.92
2023-03-03T14:00:24.723Z,26.98
2023-03-03T14:03:29.698Z,33.25
2023-03-03T14:06:14.594Z,26.85
2023-03-03T14:08:50.441Z,29.15
2023-03-03T14:11:25.191Z,27.98
2023-03-03T14:14:28.718Z,26.55
2023-03-03T14:17:11.661Z,28.52
2023-03-03T14:19:48.211Z,25.23
2023-03-03T14:22:37.975Z,30.17
2023-03-03T14:25:22.801Z,28.88
2023-03-03T14:27:49.180Z,28.35
2023-03-03T14:30:21.846Z,28.52
2023-03-03T14:33:17.628Z,28.67
2023-03-03T14:35:57.534Z,29.17
2023-03-03T14:38:36.011Z,33.60
2023-03-03T14:41:13.810Z,29.80
2023-03-03T14:43:42.703Z,28.88
2023-03-03T14:46:24.865Z,24.70
2023-03-03T14:48:53.526Z,28.55
2023-03-03T14:51:27.147Z,28.13
2023-03-03T14:53:53.996Z,29.35
2023-03-03T14:56:30.278Z,28.38
2023-03-03T14:59:18.771Z,30.88
2023-03-03T15:01:45.763Z,28.77
2023-03-03T15:04:25.729Z,25.95
2023-03-03T15:06:54.867Z,27.85
2023-03-03T15:09:36.784Z,28.85
2023-03-03T15:12:18.979Z,32.03
2023-03-03T15:14:48.776Z,26.60
2023-03-03T15:17:34.178Z,31.95
2023-03-03T15:20:27.145Z,28.88
2023-03-03T15:23:05.720Z,72.07
2023-03-03T15:25:58.763Z,31.73
2023-03-03T15:28:55.703Z,28.20
2023-03-03T15:31:45.635Z,34.05
2023-03-03T15:34:38.203Z,28.52
2023-03-03T15:37:12.779Z,29.33
2023-03-03T15:39:44.905Z,28.45
2023-03-03T15:42:13.567Z,31.23
2023-03-03T15:44:58.833Z,31.42
2023-03-03T15:47:50.017Z,28.63
2023-03-03T15:50:35.830Z,30.73
2023-03-03T15:53:26.970Z,30.13
2023-03-03T15:56:16.264Z,31.17
2023-03-03T15:59:08.138Z,29.80
2023-03-03T16:04:10.343Z,29.40
2023-03-03T16:07:16.664Z,28.60
2023-03-03T16:10:12.159Z,33.15
2023-03-03T16:12:41.640Z,29.35
2023-03-03T16:15:36.302Z,36.63
2023-03-03T16:18:24.577Z,27.50
2023-03-03T16:21:01.775Z,29.55
2023-03-03T16:23:47.194Z,27.88
2023-03-03T16:26:25.550Z,32.13
2023-03-03T16:29:07.595Z,30.35
2023-03-03T16:31:45.726Z,30.17
2023-03-03T16:34:33.601Z,34.63
2023-03-03T16:37:22.353Z,25.80
2023-03-03T16:40:01.829Z,29.80
2023-03-03T16:42:30.613Z,32.10
2023-03-03T16:45:06.614Z,33.78
2023-03-03T16:47:44.547Z,31.77
2023-03-03T16:50:15.629Z,29.45
2023-03-03T16:52:47.947Z,32.03
2023-03-03T16:55:28.094Z,29.65
2023-03-03T16:58:16.493Z,35.58
2023-03-03T17:00:50.558Z,30.50
2023-03-03T17:03:35.537Z,31.63
2023-03-03T17:06:15.556Z,32.83
2023-03-03T17:09:33.545Z,35.88
2023-03-03T17:12:18.680Z,32.17
2023-03-03T17:15:10.985Z,34.28
2023-03-03T17:17:47.148Z,36.72
2023-03-03T17:20:36.912Z,36.25
2023-03-03T17:23:20.518Z,53.00
2023-03-03T17:25:52.925Z,68.82
2023-03-03T17:28:51.680Z,55.25
2023-03-03T17:31:21.205Z,37.50
2023-03-03T17:34:03.492Z,41.05
2023-03-03T17:36:48.588Z,40.70
2023-03-03T17:39:24.158Z,46.28
2023-03-03T17:41:59.742Z,34.90
2023-03-03T17:44:46.399Z,35.15
2023-03-03T17:47:23.942Z,37.15
2023-03-03T17:49:56.344Z,36.85
2023-03-03T17:52:39.385Z,41.20
2023-03-03T17:55:32.545Z,46.20
2023-03-03T17:58:14.198Z,36.65
2023-03-03T18:01:07.148Z,38.95
2023-03-03T18:04:00.841Z,35.17
2023-03-03T18:06:55.357Z,32.25
2023-03-03T18:09:33.663Z,38.50
2023-03-03T18:12:31.228Z,39.97
2023-03-03T18:15:16.240Z,38.53
2023-03-03T18:18:22.285Z,37.00
2023-03-03T18:20:59.803Z,45.58
2023-03-03T18:23:41.970Z,39.47
2023-03-03T18:26:26.738Z,38.65
2023-03-03T18:29:05.710Z,35.15
2023-03-03T18:31:46.209Z,41.40
2023-03-03T18:34:18.763Z,32.92
2023-03-03T18:37:07.359Z,35.22
2023-03-03T18:39:45.669Z,42.88
2023-03-03T18:42:40.963Z,34.65
2023-03-03T18:45:30.318Z,37.03
2023-03-03T18:48:03.875Z,43.03
2023-03-03T18:50:34.564Z,35.85
2023-03-03T18:53:23.785Z,38.35
2023-03-03T18:55:58.616Z,41.72
2023-03-03T18:58:41.352Z,42.08
2023-03-03T19:01:10.917Z,39.55
2023-03-03T19:06:32.904Z,39.80
2023-03-03T19:08:59.546Z,38.97
2023-03-03T19:11:44.900Z,38.50
2023-03-03T19:14:17.234Z,38.85
2023-03-03T19:16:44.696Z,40.53
2023-03-03T19:19:12.502Z,42.97
2023-03-03T19:21:40.732Z,50.35
2023-03-03T19:24:22.655Z,43.85
2023-03-03T19:29:46.807Z,42.97
2023-03-03T19:32:44.375Z,47.35
2023-03-03T19:35:18.616Z,41.55
2023-03-03T19:38:18.472Z,43.42
2023-03-03T19:40:55.701Z,39.95
2023-03-03T19:43:44.920Z,35.00
2023-03-03T19:46:47.154Z,36.70
2023-03-03T19:49:27.760Z,41.20
2023-03-03T19:52:14.024Z,46.58
2023-03-03T19:54:59.039Z,38.95
2023-03-03T19:57:37.306Z,38.38
2023-03-03T20:00:19.434Z,41.88
2023-03-03T20:03:07.051Z,38.47
2023-03-03T20:05:52.417Z,38.55
2023-03-03T20:08:31.147Z,34.42
2023-03-03T20:11:35.896Z,27.60
2023-03-03T20:14:34.656Z,38.55
2023-03-03T20:17:32.212Z,34.70
2023-03-03T20:20:12.897Z,37.28
2023-03-03T20:23:01.984Z,35.55
2023-03-03T20:25:34.636Z,39.83
2023-03-03T20:28:39.068Z,37.88
2023-03-03T20:31:11.745Z,37.20
2023-03-03T20:33:45.432Z,39.33
2023-03-03T20:36:33.940Z,44.65
2023-03-03T20:39:14.767Z,43.17
2023-03-03T20:42:09.179Z,42.92
2023-03-03T20:44:58.783Z,36.75
2023-03-03T20:47:56.471Z,35.38
2023-03-03T20:50:37.556Z,41.20
2023-03-03T20:53:37.843Z,34.47
2023-03-03T20:56:24.262Z,35.40
2023-03-03T20:59:05.950Z,37.63
2023-03-03T21:01:41.675Z,33.92
2023-03-03T21:04:30.265Z,35.25
2023-03-03T21:06:58.008Z,40.60
2023-03-03T21:09:37.912Z,39.67
2023-03-03T21:12:28.871Z,39.70
2023-03-03T21:15:02.090Z,36.30
2023-03-03T21:17:30.900Z,36.42
2023-03-03T21:20:29.975Z,37.08
2023-03-03T21:22:58.383Z,38.33
2023-03-03T21:25:40.240Z,34.60
2023-03-03T21:31:09.100Z,39.60
2023-03-03T21:33:44.640Z,35.05
2023-03-03T21:36:14.330Z,31.40
2023-03-03T21:38:41.501Z,34.03
2023-03-03T21:41:08.945Z,32.97
2023-03-03T21:43:41.566Z,36.03
2023-03-03T21:46:08.621Z,34.65
2023-03-03T21:48:35.197Z,30.60
2023-03-03T21:51:01.756Z,33.65
2023-03-03T21:53:29.641Z,34.33
2023-03-03T21:55:56.172Z,31.80
2023-03-03T21:58:22.698Z,35.58
2023-03-03T22:00:49.209Z,31.83
2023-03-03T22:03:16.802Z,29.77
2023-03-03T22:05:43.747Z,35.78
2023-03-03T22:08:10.215Z,33.67
2023-03-03T22:10:36.694Z,32.45
2023-03-03T22:13:03.469Z,37.03
2023-03-03T22:15:33.166Z,40.10
2023-03-03T22:18:00.426Z,38.58
2023-03-03T22:20:27.008Z,37.78
2023-03-03T22:22:53.541Z,36.80
2023-03-03T22:25:19.988Z,42.10
2023-03-03T22:27:46.532Z,40.85
2023-03-03T22:30:13.655Z,38.17
2023-03-03T22:32:40.197Z,37.03
2023-03-03T22:35:08.399Z,33.83
2023-03-03T22:37:34.924Z,30.67
2023-03-03T22:40:01.485Z,35.28
2023-03-03T22:42:28.113Z,33.00
2023-03-03T22:44:54.562Z,32.65
2023-03-03T22:47:21.015Z,27.60
2023-03-03T22:49:47.497Z,35.42
2023-03-03T22:52:13.993Z,33.95
2023-03-03T22:54:40.982Z,34.58
2023-03-03T22:57:07.455Z,31.92
2023-03-03T22:59:34.484Z,31.55
2023-03-03T23:02:01.000Z,36.00
2023-03-03T23:04:27.555Z,30.50
2023-03-03T23:06:54.164Z,32.83
2023-03-03T23:09:20.667Z,32.25
2023-03-03T23:11:47.140Z,30.30
2023-03-03T23:14:13.997Z,36.25
2023-03-03T23:16:40.503Z,29.73
2023-03-03T23:19:07.004Z,35.58
2023-03-03T23:21:33.769Z,32.03
2023-03-03T23:24:00.272Z,32.63
2023-03-03T23:26:26.755Z,34.45
2023-03-03T23:28:53.217Z,30.40
2023-03-03T23:31:19.716Z,34.00
2023-03-03T23:33:46.280Z,32.72
2023-03-03T23:36:12.901Z,30.90
2023-03-03T23:38:40.293Z,34.60
2023-03-03T23:41:08.397Z,35.83
2023-03-03T23:43:35.012Z,34.15
2023-03-03T23:46:01.470Z,31.90
2023-03-03T23:48:27.922Z,30.38
2023-03-03T23:50:54.424Z,34.67
2023-03-03T23:53:21.060Z,30.55
2023-03-03T23:55:47.596Z,31.27
2023-03-03T23:58:14.153Z,41.08
